sensor_id;sensor_type;location;lat;lon;timestamp;temperature;humidity
64620;DHT22;51029;51.058;13.826;2023-02-05T00:00:16;-2.10;99.90
64620;DHT22;51029;51.058;13.826;2023-02-05T00:02:42;-2.10;99.90
64620;DHT22;51029;51.058;13.826;2023-02-05T00:05:08;-2.10;99.90
64620;DHT22;51029;51.058;13.826;2023-02-05T00:07:33;-2.10;99.90
64620;DHT22;51029;51.058;13.826;2023-02-05T00:09:59;-2.10;99.90
64620;DHT22;51029;51.058;13.826;2023-02-05T00:12:24;-2.10;99.90
64620;DHT22;51029;51.058;13.826;2023-02-05T00:14:50;-2.10;99.90
64620;DHT22;51029;51.058;13.826;2023-02-05T00:17:15;-2.10;99.90
64620;DHT22;51029;51.058;13.826;2023-02-05T00:19:41;-2.10;99.90
64620;DHT22;51029;51.058;13.826;2023-02-05T00:22:06;-2.10;99.90
64620;DHT22;51029;51.058;13.826;2023-02-05T00:24:32;-2.10;99.90
64620;DHT22;51029;51.058;13.826;2023-02-05T00:26:57;-2.20;99.90
64620;DHT22;51029;51.058;13.826;2023-02-05T00:29:23;-2.10;99.90
64620;DHT22;51029;51.058;13.826;2023-02-05T00:31:49;-2.20;99.90
64620;DHT22;51029;51.058;13.826;2023-02-05T00:34:15;-2.20;99.90
64620;DHT22;51029;51.058;13.826;2023-02-05T00:36:41;-2.20;99.90
64620;DHT22;51029;51.058;13.826;2023-02-05T00:39:07;-2.20;99.90
64620;DHT22;51029;51.058;13.826;2023-02-05T00:41:36;-2.20;99.90
64620;DHT22;51029;51.058;13.826;2023-02-05T00:44:01;-2.20;99.90
64620;DHT22;51029;51.058;13.826;2023-02-05T00:46:27;-2.30;99.90
64620;DHT22;51029;51.058;13.826;2023-02-05T00:48:52;-2.30;99.90
64620;DHT22;51029;51.058;13.826;2023-02-05T00:51:17;-2.40;99.90
64620;DHT22;51029;51.058;13.826;2023-02-05T00:53:43;-2.40;99.90
64620;DHT22;51029;51.058;13.826;2023-02-05T00:56:09;-2.50;99.90
64620;DHT22;51029;51.058;13.826;2023-02-05T00:58:34;-2.60;99.90
64620;DHT22;51029;51.058;13.826;2023-02-05T01:01:00;-2.60;99.90
64620;DHT22;51029;51.058;13.826;2023-02-05T01:03:25;-2.60;99.90
64620;DHT22;51029;51.058;13.826;2023-02-05T01:05:51;-2.60;99.90
64620;DHT22;51029;51.058;13.826;2023-02-05T01:08:16;-2.60;99.90
64620;DHT22;51029;51.058;13.826;2023-02-05T01:10:44;-2.60;99.90
64620;DHT22;51029;51.058;13.826;2023-02-05T01:13:10;-2.60;99.90
64620;DHT22;51029;51.058;13.826;2023-02-05T01:15:36;-2.70;99.90
64620;DHT22;51029;51.058;13.826;2023-02-05T01:18:01;-2.70;99.90
64620;DHT22;51029;51.058;13.826;2023-02-05T01:20:27;-2.80;99.90
64620;DHT22;51029;51.058;13.826;2023-02-05T01:22:53;-2.90;99.90
64620;DHT22;51029;51.058;13.826;2023-02-05T01:25:19;-2.80;99.90
64620;DHT22;51029;51.058;13.826;2023-02-05T01:27:44;-2.80;99.90
64620;DHT22;51029;51.058;13.826;2023-02-05T01:30:10;-2.80;99.90
64620;DHT22;51029;51.058;13.826;2023-02-05T01:32:38;-2.80;99.90
64620;DHT22;51029;51.058;13.826;2023-02-05T01:35:05;-2.80;99.90
64620;DHT22;51029;51.058;13.826;2023-02-05T01:37:31;-2.80;99.90
64620;DHT22;51029;51.058;13.826;2023-02-05T01:39:56;-2.80;99.90
64620;DHT22;51029;51.058;13.826;2023-02-05T01:42:25;-2.80;99.90
64620;DHT22;51029;51.058;13.826;2023-02-05T01:47:52;-2.90;99.90
64620;DHT22;51029;51.058;13.826;2023-02-05T01:50:23;-2.90;99.90
64620;DHT22;51029;51.058;13.826;2023-02-05T01:52:50;-3.00;99.90
64620;DHT22;51029;51.058;13.826;2023-02-05T01:55:16;-3.00;99.90
64620;DHT22;51029;51.058;13.826;2023-02-05T01:57:42;-3.00;99.90
64620;DHT22;51029;51.058;13.826;2023-02-05T02:00:09;-3.10;99.90
64620;DHT22;51029;51.058;13.826;2023-02-05T02:02:36;-3.10;99.90
64620;DHT22;51029;51.058;13.826;2023-02-05T02:05:08;-3.10;99.90
64620;DHT22;51029;51.058;13.826;2023-02-05T02:07:35;-3.20;99.90
64620;DHT22;51029;51.058;13.826;2023-02-05T02:10:01;-3.20;99.90
64620;DHT22;51029;51.058;13.826;2023-02-05T02:12:30;-3.30;99.90
64620;DHT22;51029;51.058;13.826;2023-02-05T02:14:59;-3.40;99.90
64620;DHT22;51029;51.058;13.826;2023-02-05T02:17:26;-3.50;99.90
64620;DHT22;51029;51.058;13.826;2023-02-05T02:20:00;-3.50;99.90
64620;DHT22;51029;51.058;13.826;2023-02-05T02:28:00;-3.20;99.90
64620;DHT22;51029;51.058;13.826;2023-02-05T02:30:34;-3.20;99.90
64620;DHT22;51029;51.058;13.826;2023-02-05T02:33:35;-3.20;99.90
64620;DHT22;51029;51.058;13.826;2023-02-05T02:36:46;-3.30;99.90
64620;DHT22;51029;51.058;13.826;2023-02-05T02:39:24;-3.30;99.90
64620;DHT22;51029;51.058;13.826;2023-02-05T02:42:02;-3.40;99.90
64620;DHT22;51029;51.058;13.826;2023-02-05T02:44:39;-3.40;99.90
64620;DHT22;51029;51.058;13.826;2023-02-05T02:47:14;-3.50;99.90
64620;DHT22;51029;51.058;13.826;2023-02-05T02:49:46;-3.40;99.90
64620;DHT22;51029;51.058;13.826;2023-02-05T02:52:17;-3.50;99.90
64620;DHT22;51029;51.058;13.826;2023-02-05T02:54:46;-3.60;99.90
64620;DHT22;51029;51.058;13.826;2023-02-05T02:57:14;-3.50;99.90
64620;DHT22;51029;51.058;13.826;2023-02-05T02:59:43;-3.60;99.90
64620;DHT22;51029;51.058;13.826;2023-02-05T03:02:10;-3.60;99.90
64620;DHT22;51029;51.058;13.826;2023-02-05T03:04:41;-3.50;99.90
64620;DHT22;51029;51.058;13.826;2023-02-05T03:07:19;-3.50;99.90
64620;DHT22;51029;51.058;13.826;2023-02-05T03:12:32;-3.50;99.90
64620;DHT22;51029;51.058;13.826;2023-02-05T03:14:58;-3.50;99.90
64620;DHT22;51029;51.058;13.826;2023-02-05T03:17:24;-3.50;99.90
64620;DHT22;51029;51.058;13.826;2023-02-05T03:20:03;-3.50;99.90
64620;DHT22;51029;51.058;13.826;2023-02-05T03:22:30;-3.60;99.90
64620;DHT22;51029;51.058;13.826;2023-02-05T03:24:55;-3.60;99.90
64620;DHT22;51029;51.058;13.826;2023-02-05T03:27:22;-3.60;99.90
64620;DHT22;51029;51.058;13.826;2023-02-05T03:29:47;-3.60;99.90
64620;DHT22;51029;51.058;13.826;2023-02-05T03:32:37;-3.60;99.90
64620;DHT22;51029;51.058;13.826;2023-02-05T03:46:07;-3.80;99.90
64620;DHT22;51029;51.058;13.826;2023-02-05T03:51:38;-3.80;99.90
64620;DHT22;51029;51.058;13.826;2023-02-05T03:54:17;-3.80;99.90
64620;DHT22;51029;51.058;13.826;2023-02-05T03:57:03;-3.80;99.90
64620;DHT22;51029;51.058;13.826;2023-02-05T03:59:31;-3.90;99.90
64620;DHT22;51029;51.058;13.826;2023-02-05T04:01:57;-3.90;99.90
64620;DHT22;51029;51.058;13.826;2023-02-05T04:04:23;-3.90;99.90
64620;DHT22;51029;51.058;13.826;2023-02-05T04:06:51;-3.90;99.90
64620;DHT22;51029;51.058;13.826;2023-02-05T04:09:16;-4.00;99.90
64620;DHT22;51029;51.058;13.826;2023-02-05T04:11:42;-4.00;99.90
64620;DHT22;51029;51.058;13.826;2023-02-05T04:14:07;-4.10;99.90
64620;DHT22;51029;51.058;13.826;2023-02-05T04:16:33;-4.10;99.90
64620;DHT22;51029;51.058;13.826;2023-02-05T04:18:59;-4.10;99.90
64620;DHT22;51029;51.058;13.826;2023-02-05T04:21:24;-4.10;99.90
64620;DHT22;51029;51.058;13.826;2023-02-05T04:23:49;-4.10;99.90
64620;DHT22;51029;51.058;13.826;2023-02-05T04:26:15;-4.10;99.90
64620;DHT22;51029;51.058;13.826;2023-02-05T04:28:40;-4.10;99.90
64620;DHT22;51029;51.058;13.826;2023-02-05T04:31:07;-4.10;99.90
64620;DHT22;51029;51.058;13.826;2023-02-05T04:33:33;-4.10;99.90
64620;DHT22;51029;51.058;13.826;2023-02-05T04:35:59;-4.10;99.90
64620;DHT22;51029;51.058;13.826;2023-02-05T04:38:25;-4.10;99.90
64620;DHT22;51029;51.058;13.826;2023-02-05T04:40:51;-4.20;99.90
64620;DHT22;51029;51.058;13.826;2023-02-05T04:43:17;-4.20;99.90
64620;DHT22;51029;51.058;13.826;2023-02-05T04:45:42;-4.20;99.90
64620;DHT22;51029;51.058;13.826;2023-02-05T04:48:08;-4.20;99.90
64620;DHT22;51029;51.058;13.826;2023-02-05T04:50:33;-4.20;99.90
64620;DHT22;51029;51.058;13.826;2023-02-05T04:52:59;-4.20;99.90
64620;DHT22;51029;51.058;13.826;2023-02-05T04:55:27;-4.20;99.90
64620;DHT22;51029;51.058;13.826;2023-02-05T04:57:52;-4.20;99.90
64620;DHT22;51029;51.058;13.826;2023-02-05T05:00:18;-4.30;99.90
64620;DHT22;51029;51.058;13.826;2023-02-05T05:02:43;-4.40;99.90
64620;DHT22;51029;51.058;13.826;2023-02-05T05:05:09;-4.40;99.90
64620;DHT22;51029;51.058;13.826;2023-02-05T05:07:36;-4.40;99.90
64620;DHT22;51029;51.058;13.826;2023-02-05T05:10:02;-4.40;99.90
64620;DHT22;51029;51.058;13.826;2023-02-05T05:12:27;-4.40;99.90
64620;DHT22;51029;51.058;13.826;2023-02-05T05:14:53;-4.40;99.90
64620;DHT22;51029;51.058;13.826;2023-02-05T05:17:18;-4.50;99.90
64620;DHT22;51029;51.058;13.826;2023-02-05T05:19:44;-4.40;99.90
64620;DHT22;51029;51.058;13.826;2023-02-05T05:22:09;-4.30;99.90
64620;DHT22;51029;51.058;13.826;2023-02-05T05:24:35;-4.20;99.90
64620;DHT22;51029;51.058;13.826;2023-02-05T05:27:00;-4.10;99.90
64620;DHT22;51029;51.058;13.826;2023-02-05T05:29:26;-4.00;99.90
64620;DHT22;51029;51.058;13.826;2023-02-05T05:31:52;-3.80;99.90
64620;DHT22;51029;51.058;13.826;2023-02-05T05:34:18;-3.70;99.90
64620;DHT22;51029;51.058;13.826;2023-02-05T05:36:43;-3.70;99.90
64620;DHT22;51029;51.058;13.826;2023-02-05T05:39:11;-3.60;99.90
64620;DHT22;51029;51.058;13.826;2023-02-05T05:41:55;-3.60;99.90
64620;DHT22;51029;51.058;13.826;2023-02-05T05:44:40;-3.60;99.90
64620;DHT22;51029;51.058;13.826;2023-02-05T05:47:06;-3.50;99.90
64620;DHT22;51029;51.058;13.826;2023-02-05T05:49:31;-3.50;99.90
64620;DHT22;51029;51.058;13.826;2023-02-05T05:51:57;-3.50;99.90
64620;DHT22;51029;51.058;13.826;2023-02-05T05:54:22;-3.50;99.90
64620;DHT22;51029;51.058;13.826;2023-02-05T05:56:48;-3.50;99.90
64620;DHT22;51029;51.058;13.826;2023-02-05T05:59:14;-3.50;99.90
64620;DHT22;51029;51.058;13.826;2023-02-05T06:01:40;-3.50;99.90
64620;DHT22;51029;51.058;13.826;2023-02-05T06:04:06;-3.60;99.90
64620;DHT22;51029;51.058;13.826;2023-02-05T06:06:31;-3.60;99.90
64620;DHT22;51029;51.058;13.826;2023-02-05T06:08:57;-3.70;99.90
64620;DHT22;51029;51.058;13.826;2023-02-05T06:11:22;-3.80;99.90
64620;DHT22;51029;51.058;13.826;2023-02-05T06:13:48;-3.90;99.90
64620;DHT22;51029;51.058;13.826;2023-02-05T06:16:13;-3.90;99.90
64620;DHT22;51029;51.058;13.826;2023-02-05T06:18:39;-3.90;99.90
64620;DHT22;51029;51.058;13.826;2023-02-05T06:21:04;-4.00;99.90
64620;DHT22;51029;51.058;13.826;2023-02-05T06:23:31;-4.10;99.90
64620;DHT22;51029;51.058;13.826;2023-02-05T06:25:57;-4.10;99.90
64620;DHT22;51029;51.058;13.826;2023-02-05T06:28:23;-4.10;99.90
64620;DHT22;51029;51.058;13.826;2023-02-05T06:30:48;-4.20;99.90
64620;DHT22;51029;51.058;13.826;2023-02-05T06:33:14;-4.20;99.90
64620;DHT22;51029;51.058;13.826;2023-02-05T06:35:40;-4.20;99.90
64620;DHT22;51029;51.058;13.826;2023-02-05T06:38:06;-4.20;99.90
64620;DHT22;51029;51.058;13.826;2023-02-05T06:40:31;-4.20;99.90
64620;DHT22;51029;51.058;13.826;2023-02-05T06:42:57;-4.20;99.90
64620;DHT22;51029;51.058;13.826;2023-02-05T06:45:22;-4.20;99.90
64620;DHT22;51029;51.058;13.826;2023-02-05T06:47:48;-4.30;99.90
64620;DHT22;51029;51.058;13.826;2023-02-05T06:50:14;-4.30;99.90
64620;DHT22;51029;51.058;13.826;2023-02-05T06:52:40;-4.30;99.90
64620;DHT22;51029;51.058;13.826;2023-02-05T06:55:05;-4.30;99.90
64620;DHT22;51029;51.058;13.826;2023-02-05T06:57:31;-4.40;99.90
64620;DHT22;51029;51.058;13.826;2023-02-05T06:59:57;-4.30;99.90
64620;DHT22;51029;51.058;13.826;2023-02-05T07:02:23;-4.30;99.90
64620;DHT22;51029;51.058;13.826;2023-02-05T07:04:48;-4.20;99.90
64620;DHT22;51029;51.058;13.826;2023-02-05T07:07:14;-4.00;99.90
64620;DHT22;51029;51.058;13.826;2023-02-05T07:09:41;-4.10;99.90
64620;DHT22;51029;51.058;13.826;2023-02-05T07:12:07;-4.10;99.90
64620;DHT22;51029;51.058;13.826;2023-02-05T07:14:40;-4.00;99.90
64620;DHT22;51029;51.058;13.826;2023-02-05T07:17:06;-3.80;99.90
64620;DHT22;51029;51.058;13.826;2023-02-05T07:19:32;-3.80;99.90
64620;DHT22;51029;51.058;13.826;2023-02-05T07:21:58;-3.60;99.90
64620;DHT22;51029;51.058;13.826;2023-02-05T07:24:24;-3.50;99.90
64620;DHT22;51029;51.058;13.826;2023-02-05T07:26:49;-3.30;99.90
64620;DHT22;51029;51.058;13.826;2023-02-05T07:29:15;-3.10;99.90
64620;DHT22;51029;51.058;13.826;2023-02-05T07:31:40;-2.90;99.90
64620;DHT22;51029;51.058;13.826;2023-02-05T07:34:06;-2.70;99.90
64620;DHT22;51029;51.058;13.826;2023-02-05T07:36:31;-2.60;99.90
64620;DHT22;51029;51.058;13.826;2023-02-05T07:38:57;-2.50;99.90
64620;DHT22;51029;51.058;13.826;2023-02-05T07:41:23;-2.40;99.90
64620;DHT22;51029;51.058;13.826;2023-02-05T07:43:51;-2.40;99.90
64620;DHT22;51029;51.058;13.826;2023-02-05T07:46:17;-2.30;99.90
64620;DHT22;51029;51.058;13.826;2023-02-05T07:48:43;-2.30;99.90
64620;DHT22;51029;51.058;13.826;2023-02-05T07:51:14;-2.20;99.90
64620;DHT22;51029;51.058;13.826;2023-02-05T07:53:39;-2.10;99.90
64620;DHT22;51029;51.058;13.826;2023-02-05T07:56:05;-2.00;99.90
64620;DHT22;51029;51.058;13.826;2023-02-05T07:58:31;-1.90;99.90
64620;DHT22;51029;51.058;13.826;2023-02-05T08:01:01;-1.70;99.90
64620;DHT22;51029;51.058;13.826;2023-02-05T08:03:27;-1.50;99.90
64620;DHT22;51029;51.058;13.826;2023-02-05T08:05:53;-1.30;99.90
64620;DHT22;51029;51.058;13.826;2023-02-05T08:08:18;-1.40;99.90
64620;DHT22;51029;51.058;13.826;2023-02-05T08:10:44;-1.20;99.90
64620;DHT22;51029;51.058;13.826;2023-02-05T08:13:09;-1.10;99.90
64620;DHT22;51029;51.058;13.826;2023-02-05T08:15:37;-1.00;99.90
64620;DHT22;51029;51.058;13.826;2023-02-05T08:18:03;-0.90;99.90
64620;DHT22;51029;51.058;13.826;2023-02-05T08:20:29;-0.90;99.90
64620;DHT22;51029;51.058;13.826;2023-02-05T08:22:54;-0.80;99.90
64620;DHT22;51029;51.058;13.826;2023-02-05T08:25:20;-0.70;99.90
64620;DHT22;51029;51.058;13.826;2023-02-05T08:27:46;-0.60;99.90
64620;DHT22;51029;51.058;13.826;2023-02-05T08:30:15;-0.40;99.90
64620;DHT22;51029;51.058;13.826;2023-02-05T08:32:41;-0.30;99.90
64620;DHT22;51029;51.058;13.826;2023-02-05T08:35:10;-0.20;99.90
64620;DHT22;51029;51.058;13.826;2023-02-05T08:37:36;0.00;99.90
64620;DHT22;51029;51.058;13.826;2023-02-05T08:40:02;0.30;99.90
64620;DHT22;51029;51.058;13.826;2023-02-05T08:42:27;0.40;99.90
64620;DHT22;51029;51.058;13.826;2023-02-05T08:44:53;0.60;99.90
64620;DHT22;51029;51.058;13.826;2023-02-05T08:47:23;0.80;99.90
64620;DHT22;51029;51.058;13.826;2023-02-05T08:49:49;1.00;99.90
64620;DHT22;51029;51.058;13.826;2023-02-05T08:52:14;1.20;99.90
64620;DHT22;51029;51.058;13.826;2023-02-05T08:54:40;1.40;99.90
64620;DHT22;51029;51.058;13.826;2023-02-05T08:57:06;1.50;99.90
64620;DHT22;51029;51.058;13.826;2023-02-05T08:59:32;1.60;99.90
64620;DHT22;51029;51.058;13.826;2023-02-05T09:01:57;1.60;99.90
64620;DHT22;51029;51.058;13.826;2023-02-05T09:04:23;1.70;99.90
64620;DHT22;51029;51.058;13.826;2023-02-05T09:06:49;1.80;99.90
64620;DHT22;51029;51.058;13.826;2023-02-05T09:09:15;1.90;99.90
64620;DHT22;51029;51.058;13.826;2023-02-05T09:11:41;1.90;99.90
64620;DHT22;51029;51.058;13.826;2023-02-05T09:14:08;2.00;99.90
64620;DHT22;51029;51.058;13.826;2023-02-05T09:16:34;2.00;99.90
64620;DHT22;51029;51.058;13.826;2023-02-05T09:19:00;2.00;99.90
64620;DHT22;51029;51.058;13.826;2023-02-05T09:21:26;2.00;99.90
64620;DHT22;51029;51.058;13.826;2023-02-05T09:23:52;1.90;99.90
64620;DHT22;51029;51.058;13.826;2023-02-05T09:26:19;1.90;99.90
64620;DHT22;51029;51.058;13.826;2023-02-05T09:28:44;1.80;99.90
64620;DHT22;51029;51.058;13.826;2023-02-05T09:31:15;1.70;99.90
64620;DHT22;51029;51.058;13.826;2023-02-05T09:33:41;1.60;99.90
64620;DHT22;51029;51.058;13.826;2023-02-05T09:36:09;1.60;99.90
64620;DHT22;51029;51.058;13.826;2023-02-05T09:38:36;1.60;99.90
64620;DHT22;51029;51.058;13.826;2023-02-05T09:41:07;1.70;99.90
64620;DHT22;51029;51.058;13.826;2023-02-05T09:49:18;2.30;99.40
64620;DHT22;51029;51.058;13.826;2023-02-05T09:51:51;2.40;99.90
64620;DHT22;51029;51.058;13.826;2023-02-05T09:54:24;2.60;99.90
64620;DHT22;51029;51.058;13.826;2023-02-05T09:56:54;2.90;99.90
64620;DHT22;51029;51.058;13.826;2023-02-05T09:59:23;3.30;98.80
64620;DHT22;51029;51.058;13.826;2023-02-05T10:02:01;3.80;98.00
64620;DHT22;51029;51.058;13.826;2023-02-05T10:04:27;4.10;97.80
64620;DHT22;51029;51.058;13.826;2023-02-05T10:10:08;4.70;96.90
64620;DHT22;51029;51.058;13.826;2023-02-05T10:21:43;5.20;94.40
64620;DHT22;51029;51.058;13.826;2023-02-05T10:27:22;5.30;93.90
64620;DHT22;51029;51.058;13.826;2023-02-05T10:30:11;5.40;93.80
64620;DHT22;51029;51.058;13.826;2023-02-05T10:32:59;5.60;94.30
64620;DHT22;51029;51.058;13.826;2023-02-05T10:35:59;5.70;94.20
64620;DHT22;51029;51.058;13.826;2023-02-05T10:38:28;5.90;93.20
64620;DHT22;51029;51.058;13.826;2023-02-05T10:41:00;6.00;92.80
64620;DHT22;51029;51.058;13.826;2023-02-05T10:44:03;6.30;92.50
64620;DHT22;51029;51.058;13.826;2023-02-05T10:46:35;6.20;91.10
64620;DHT22;51029;51.058;13.826;2023-02-05T10:49:14;6.10;90.60
64620;DHT22;51029;51.058;13.826;2023-02-05T10:51:43;6.00;90.70
64620;DHT22;51029;51.058;13.826;2023-02-05T10:54:30;6.10;91.20
64620;DHT22;51029;51.058;13.826;2023-02-05T10:56:58;6.10;91.40
64620;DHT22;51029;51.058;13.826;2023-02-05T10:59:30;6.20;90.90
64620;DHT22;51029;51.058;13.826;2023-02-05T11:02:02;6.30;90.20
64620;DHT22;51029;51.058;13.826;2023-02-05T11:04:47;6.40;88.30
64620;DHT22;51029;51.058;13.826;2023-02-05T11:07:32;6.60;86.90
64620;DHT22;51029;51.058;13.826;2023-02-05T11:10:13;6.90;85.90
64620;DHT22;51029;51.058;13.826;2023-02-05T11:12:39;7.10;82.90
64620;DHT22;51029;51.058;13.826;2023-02-05T11:15:18;7.30;82.40
64620;DHT22;51029;51.058;13.826;2023-02-05T11:17:49;7.60;81.60
64620;DHT22;51029;51.058;13.826;2023-02-05T11:22:41;8.20;77.40
64620;DHT22;51029;51.058;13.826;2023-02-05T11:25:15;8.20;75.80
64620;DHT22;51029;51.058;13.826;2023-02-05T11:27:51;8.40;76.00
64620;DHT22;51029;51.058;13.826;2023-02-05T11:30:32;8.50;73.70
64620;DHT22;51029;51.058;13.826;2023-02-05T11:35:48;8.20;71.90
64620;DHT22;51029;51.058;13.826;2023-02-05T11:38:30;7.90;71.60
64620;DHT22;51029;51.058;13.826;2023-02-05T11:40:58;7.70;71.80
64620;DHT22;51029;51.058;13.826;2023-02-05T11:43:34;7.80;73.30
64620;DHT22;51029;51.058;13.826;2023-02-05T11:46:03;7.90;72.10
64620;DHT22;51029;51.058;13.826;2023-02-05T11:48:38;8.00;72.00
64620;DHT22;51029;51.058;13.826;2023-02-05T11:51:07;8.00;71.50
64620;DHT22;51029;51.058;13.826;2023-02-05T11:53:34;8.00;71.30
64620;DHT22;51029;51.058;13.826;2023-02-05T11:56:12;8.00;70.00
64620;DHT22;51029;51.058;13.826;2023-02-05T11:58:57;8.20;69.50
64620;DHT22;51029;51.058;13.826;2023-02-05T12:01:23;8.20;68.10
64620;DHT22;51029;51.058;13.826;2023-02-05T12:04:01;8.60;67.80
64620;DHT22;51029;51.058;13.826;2023-02-05T12:06:42;8.90;64.70
64620;DHT22;51029;51.058;13.826;2023-02-05T12:09:17;9.20;63.60
64620;DHT22;51029;51.058;13.826;2023-02-05T12:15:13;10.30;58.90
64620;DHT22;51029;51.058;13.826;2023-02-05T12:18:22;10.80;57.40
64620;DHT22;51029;51.058;13.826;2023-02-05T12:21:19;11.40;54.90
64620;DHT22;51029;51.058;13.826;2023-02-05T12:23:56;11.40;51.30
64620;DHT22;51029;51.058;13.826;2023-02-05T12:26:32;11.70;51.30
64620;DHT22;51029;51.058;13.826;2023-02-05T12:47:56;9.60;51.50
64620;DHT22;51029;51.058;13.826;2023-02-05T12:50:33;8.90;54.10
64620;DHT22;51029;51.058;13.826;2023-02-05T12:56:27;8.20;54.40
64620;DHT22;51029;51.058;13.826;2023-02-05T12:59:18;7.60;54.30
64620;DHT22;51029;51.058;13.826;2023-02-05T13:01:54;7.20;55.90
64620;DHT22;51029;51.058;13.826;2023-02-05T13:04:28;7.30;57.90
64620;DHT22;51029;51.058;13.826;2023-02-05T13:09:50;7.30;59.10
64620;DHT22;51029;51.058;13.826;2023-02-05T13:12:20;7.10;59.50
64620;DHT22;51029;51.058;13.826;2023-02-05T13:17:39;6.90;61.90
64620;DHT22;51029;51.058;13.826;2023-02-05T13:20:16;6.90;61.40
64620;DHT22;51029;51.058;13.826;2023-02-05T13:22:53;6.80;62.00
64620;DHT22;51029;51.058;13.826;2023-02-05T13:25:41;6.80;63.30
64620;DHT22;51029;51.058;13.826;2023-02-05T13:28:35;7.00;63.30
64620;DHT22;51029;51.058;13.826;2023-02-05T13:33:48;7.40;62.00
64620;DHT22;51029;51.058;13.826;2023-02-05T13:47:48;8.50;57.40
64620;DHT22;51029;51.058;13.826;2023-02-05T13:58:19;8.60;55.40
64620;DHT22;51029;51.058;13.826;2023-02-05T14:01:02;8.70;55.80
64620;DHT22;51029;51.058;13.826;2023-02-05T14:06:10;9.60;54.10
64620;DHT22;51029;51.058;13.826;2023-02-05T14:08:37;9.80;52.70
64620;DHT22;51029;51.058;13.826;2023-02-05T14:11:04;9.50;51.90
64620;DHT22;51029;51.058;13.826;2023-02-05T14:13:31;9.90;52.10
64620;DHT22;51029;51.058;13.826;2023-02-05T14:19:09;10.10;49.70
64620;DHT22;51029;51.058;13.826;2023-02-05T14:26:47;8.80;50.50
64620;DHT22;51029;51.058;13.826;2023-02-05T14:29:45;8.50;51.60
64620;DHT22;51029;51.058;13.826;2023-02-05T14:37:41;7.60;52.90
64620;DHT22;51029;51.058;13.826;2023-02-05T14:40:25;7.60;53.40
64620;DHT22;51029;51.058;13.826;2023-02-05T14:42:55;7.20;54.30
64620;DHT22;51029;51.058;13.826;2023-02-05T14:45:22;7.20;54.80
64620;DHT22;51029;51.058;13.826;2023-02-05T14:47:51;7.00;55.40
64620;DHT22;51029;51.058;13.826;2023-02-05T14:50:26;6.60;56.00
64620;DHT22;51029;51.058;13.826;2023-02-05T14:52:59;6.30;56.80
64620;DHT22;51029;51.058;13.826;2023-02-05T14:55:28;6.10;58.10
64620;DHT22;51029;51.058;13.826;2023-02-05T14:58:02;5.90;58.90
64620;DHT22;51029;51.058;13.826;2023-02-05T15:00:36;5.60;59.70
64620;DHT22;51029;51.058;13.826;2023-02-05T15:05:37;5.20;63.10
64620;DHT22;51029;51.058;13.826;2023-02-05T15:08:09;5.00;64.90
64620;DHT22;51029;51.058;13.826;2023-02-05T15:13:41;4.60;68.40
64620;DHT22;51029;51.058;13.826;2023-02-05T15:21:19;4.00;75.00
64620;DHT22;51029;51.058;13.826;2023-02-05T15:24:04;3.90;75.30
64620;DHT22;51029;51.058;13.826;2023-02-05T15:26:59;3.70;82.10
64620;DHT22;51029;51.058;13.826;2023-02-05T15:29:40;3.50;83.20
64620;DHT22;51029;51.058;13.826;2023-02-05T15:32:21;3.40;88.10
64620;DHT22;51029;51.058;13.826;2023-02-05T15:34:55;3.20;91.90
64620;DHT22;51029;51.058;13.826;2023-02-05T15:37:27;3.10;94.80
64620;DHT22;51029;51.058;13.826;2023-02-05T15:42:31;2.70;97.90
64620;DHT22;51029;51.058;13.826;2023-02-05T15:48:17;2.70;99.90
64620;DHT22;51029;51.058;13.826;2023-02-05T15:50:51;2.50;99.90
64620;DHT22;51029;51.058;13.826;2023-02-05T15:53:37;2.40;99.90
64620;DHT22;51029;51.058;13.826;2023-02-05T15:56:33;2.30;99.90
64620;DHT22;51029;51.058;13.826;2023-02-05T15:59:00;2.10;99.90
64620;DHT22;51029;51.058;13.826;2023-02-05T16:01:30;1.90;99.90
64620;DHT22;51029;51.058;13.826;2023-02-05T16:03:56;1.70;99.90
64620;DHT22;51029;51.058;13.826;2023-02-05T16:06:24;1.60;99.90
64620;DHT22;51029;51.058;13.826;2023-02-05T16:08:50;1.50;99.90
64620;DHT22;51029;51.058;13.826;2023-02-05T16:11:30;1.30;99.90
64620;DHT22;51029;51.058;13.826;2023-02-05T16:14:11;1.20;99.90
64620;DHT22;51029;51.058;13.826;2023-02-05T16:16:48;1.10;99.90
64620;DHT22;51029;51.058;13.826;2023-02-05T16:19:20;1.00;99.90
64620;DHT22;51029;51.058;13.826;2023-02-05T16:21:52;0.90;99.90
64620;DHT22;51029;51.058;13.826;2023-02-05T16:26:50;0.70;99.90
64620;DHT22;51029;51.058;13.826;2023-02-05T16:29:31;0.60;99.90
64620;DHT22;51029;51.058;13.826;2023-02-05T16:32:03;0.50;99.90
64620;DHT22;51029;51.058;13.826;2023-02-05T16:34:32;0.40;99.90
64620;DHT22;51029;51.058;13.826;2023-02-05T16:37:02;0.50;99.90
64620;DHT22;51029;51.058;13.826;2023-02-05T16:39:43;0.50;99.90
64620;DHT22;51029;51.058;13.826;2023-02-05T16:42:35;0.50;99.90
64620;DHT22;51029;51.058;13.826;2023-02-05T16:45:18;0.40;99.90
64620;DHT22;51029;51.058;13.826;2023-02-05T16:48:13;0.20;99.90
64620;DHT22;51029;51.058;13.826;2023-02-05T16:50:44;0.20;99.90
64620;DHT22;51029;51.058;13.826;2023-02-05T16:53:21;0.10;99.90
64620;DHT22;51029;51.058;13.826;2023-02-05T16:55:47;0.10;99.90
64620;DHT22;51029;51.058;13.826;2023-02-05T16:58:20;0.10;99.90
64620;DHT22;51029;51.058;13.826;2023-02-05T17:00:58;0.00;99.90
64620;DHT22;51029;51.058;13.826;2023-02-05T17:03:25;0.00;99.90
64620;DHT22;51029;51.058;13.826;2023-02-05T17:05:58;0.00;99.90
64620;DHT22;51029;51.058;13.826;2023-02-05T17:08:32;0.00;99.90
64620;DHT22;51029;51.058;13.826;2023-02-05T17:11:03;-0.10;99.90
64620;DHT22;51029;51.058;13.826;2023-02-05T17:13:41;-0.10;99.90
64620;DHT22;51029;51.058;13.826;2023-02-05T17:16:38;-0.20;99.90
64620;DHT22;51029;51.058;13.826;2023-02-05T17:19:05;-0.30;99.90
64620;DHT22;51029;51.058;13.826;2023-02-05T17:21:35;-0.30;99.90
64620;DHT22;51029;51.058;13.826;2023-02-05T17:24:02;-0.20;99.90
64620;DHT22;51029;51.058;13.826;2023-02-05T17:26:33;-0.20;99.90
64620;DHT22;51029;51.058;13.826;2023-02-05T17:29:02;-0.30;99.90
64620;DHT22;51029;51.058;13.826;2023-02-05T17:31:29;-0.40;99.90
64620;DHT22;51029;51.058;13.826;2023-02-05T17:33:57;-0.50;99.90
64620;DHT22;51029;51.058;13.826;2023-02-05T17:36:24;-0.50;99.90
64620;DHT22;51029;51.058;13.826;2023-02-05T17:38:50;-0.50;99.90
64620;DHT22;51029;51.058;13.826;2023-02-05T17:41:33;-0.50;99.90
64620;DHT22;51029;51.058;13.826;2023-02-05T17:44:18;-0.50;99.90
64620;DHT22;51029;51.058;13.826;2023-02-05T17:46:43;-0.60;99.90
64620;DHT22;51029;51.058;13.826;2023-02-05T17:49:09;-0.70;99.90
64620;DHT22;51029;51.058;13.826;2023-02-05T17:51:35;-0.70;99.90
64620;DHT22;51029;51.058;13.826;2023-02-05T17:54:03;-0.80;99.90
64620;DHT22;51029;51.058;13.826;2023-02-05T17:56:28;-0.80;99.90
64620;DHT22;51029;51.058;13.826;2023-02-05T17:58:54;-0.80;99.90
64620;DHT22;51029;51.058;13.826;2023-02-05T18:01:20;-0.90;99.90